createdAt,value
2018-12-08T00:01:32.565Z,1.5
2018-12-08T00:04:32.952Z,1.5
2018-12-08T00:07:32.591Z,1.4
2018-12-08T00:10:32.329Z,1.5
2018-12-08T00:13:32.470Z,1.5
2018-12-08T00:16:32.196Z,1.7
2018-12-08T00:19:32.295Z,1.4
2018-12-08T00:22:32.334Z,2.1
2018-12-08T00:25:32.526Z,1.7
2018-12-08T00:28:32.278Z,1.6
2018-12-08T00:31:32.381Z,1.6
2018-12-08T00:34:32.389Z,1.6
2018-12-08T00:37:32.364Z,1.3
2018-12-08T00:40:32.410Z,1.4
2018-12-08T00:43:32.276Z,1.5
2018-12-08T00:46:32.369Z,1.5
2018-12-08T00:49:32.340Z,1.6
2018-12-08T00:52:32.653Z,1.4
2018-12-08T00:55:32.540Z,1.5
2018-12-08T00:58:32.506Z,1.4
2018-12-08T01:01:32.513Z,1.7
2018-12-08T01:04:32.068Z,1.4
2018-12-08T01:07:32.246Z,1.3
2018-12-08T01:10:32.666Z,1.2
2018-12-08T01:13:32.547Z,1.2
2018-12-08T01:16:32.651Z,1.3
2018-12-08T01:19:32.373Z,1.8
2018-12-08T01:22:32.317Z,1.4
2018-12-08T01:25:32.790Z,1.3
2018-12-08T01:28:32.617Z,1.5
2018-12-08T01:31:32.279Z,1.6
2018-12-08T01:34:32.361Z,1.4
2018-12-08T01:37:32.318Z,1.4
2018-12-08T01:40:32.556Z,1.2
2018-12-08T01:43:32.438Z,1.2
2018-12-08T01:46:32.200Z,1.2
2018-12-08T01:49:32.536Z,1.4
2018-12-08T01:52:32.306Z,1.5
2018-12-08T01:55:32.449Z,1.4
2018-12-08T01:58:32.474Z,1.3
2018-12-08T02:01:32.171Z,1.4
2018-12-08T02:04:32.396Z,1.2
2018-12-08T02:07:32.135Z,1.2
2018-12-08T02:10:32.415Z,1.2
2018-12-08T02:13:32.296Z,1.1
2018-12-08T02:16:32.111Z,1.2
2018-12-08T02:19:32.668Z,1.2
2018-12-08T02:22:32.546Z,1.1
2018-12-08T02:25:32.356Z,1.2
2018-12-08T02:28:32.260Z,1
2018-12-08T02:31:32.238Z,1.1
2018-12-08T02:34:32.281Z,1.1
2018-12-08T02:37:32.114Z,1.1
2018-12-08T02:40:32.592Z,1.1
2018-12-08T02:43:32.274Z,1.1
2018-12-08T02:46:33.310Z,1.1
2018-12-08T02:49:32.371Z,1.1
2018-12-08T02:52:32.494Z,1.3
2018-12-08T02:55:32.506Z,1.3
2018-12-08T02:58:32.250Z,1.2
2018-12-08T03:01:32.255Z,1.2
2018-12-08T03:04:32.628Z,1.2
2018-12-08T03:07:32.386Z,1.1
2018-12-08T03:10:32.102Z,1.2
2018-12-08T03:13:32.454Z,1.1
2018-12-08T03:16:32.094Z,1.2
2018-12-08T03:19:32.405Z,1.3
2018-12-08T03:22:32.190Z,1.2
2018-12-08T03:25:32.072Z,1.3
2018-12-08T03:28:32.110Z,1.7
2018-12-08T03:31:32.851Z,1.4
2018-12-08T03:34:32.575Z,1.2
2018-12-08T03:37:32.080Z,1.2
2018-12-08T03:40:32.300Z,1.5
2018-12-08T03:43:32.254Z,1.4
2018-12-08T03:46:32.055Z,1.6
2018-12-08T03:49:32.264Z,1.5
2018-12-08T03:52:32.399Z,1.3
2018-12-08T03:55:32.229Z,1.2
2018-12-08T03:58:32.235Z,1.1
2018-12-08T04:01:32.570Z,1.3
2018-12-08T04:04:32.354Z,1.3
2018-12-08T04:07:32.172Z,1.3
2018-12-08T04:10:32.407Z,1.2
2018-12-08T04:13:32.321Z,1.1
2018-12-08T04:16:32.896Z,1.2
2018-12-08T04:19:31.976Z,1.1
2018-12-08T04:22:32.216Z,1.1
2018-12-08T04:25:32.385Z,1.1
2018-12-08T04:28:32.484Z,1.2
2018-12-08T04:31:32.143Z,1.2
2018-12-08T04:34:33.009Z,1.3
2018-12-08T04:37:31.987Z,1.2
2018-12-08T04:40:32.200Z,1.2
2018-12-08T04:43:32.311Z,1.1
2018-12-08T04:46:32.092Z,1.2
2018-12-08T04:49:32.130Z,1.1
2018-12-08T04:52:32.360Z,1.3
2018-12-08T04:55:32.250Z,1.2
2018-12-08T04:58:32.124Z,1.1
2018-12-08T05:01:32.656Z,1.1
2018-12-08T05:04:32.160Z,1.1
2018-12-08T05:07:32.098Z,1.1
2018-12-08T05:10:32.140Z,1.2
2018-12-08T05:13:32.234Z,1.2
2018-12-08T05:16:32.345Z,1.2
2018-12-08T05:19:32.174Z,1.1
2018-12-08T05:22:32.294Z,1.1
2018-12-08T05:25:32.086Z,1.1
2018-12-08T05:28:32.113Z,1.1
2018-12-08T05:31:32.229Z,1.2
2018-12-08T05:34:32.265Z,1
2018-12-08T05:37:32.428Z,1
2018-12-08T05:40:32.003Z,1.1
2018-12-08T05:43:32.230Z,1
2018-12-08T05:46:32.172Z,1.1
2018-12-08T05:49:32.616Z,1
2018-12-08T05:52:32.182Z,1.1
2018-12-08T05:55:31.861Z,1.2
2018-12-08T05:58:32.038Z,1
2018-12-08T06:01:32.329Z,1
2018-12-08T06:04:32.303Z,1.1
2018-12-08T06:07:32.149Z,1.1
2018-12-08T06:10:32.110Z,1.1
2018-12-08T06:13:32.182Z,1.2
2018-12-08T06:16:31.977Z,1.2
2018-12-08T06:19:32.324Z,1.2
2018-12-08T06:22:32.366Z,1
2018-12-08T06:25:32.190Z,1.1
2018-12-08T06:28:32.448Z,1.1
2018-12-08T06:31:32.137Z,1
2018-12-08T06:34:32.599Z,0.9
2018-12-08T06:37:32.256Z,0.9
2018-12-08T06:40:32.489Z,0.9
2018-12-08T06:43:32.190Z,1
2018-12-08T06:46:32.590Z,1.1
2018-12-08T06:49:32.364Z,1.1
2018-12-08T06:52:32.193Z,1.1
2018-12-08T06:55:32.102Z,1.1
2018-12-08T06:58:32.106Z,1.1
2018-12-08T07:01:32.250Z,1
2018-12-08T07:04:31.986Z,0.9
2018-12-08T07:07:32.148Z,1
2018-12-08T07:10:32.208Z,1.1
2018-12-08T07:13:32.228Z,1
2018-12-08T07:16:32.016Z,1
2018-12-08T07:19:32.116Z,1
2018-12-08T07:22:31.915Z,0.9
2018-12-08T07:25:32.101Z,0.9
2018-12-08T07:28:32.315Z,0.9
2018-12-08T07:31:33.069Z,0.9
2018-12-08T07:34:32.581Z,0.9
2018-12-08T07:37:32.260Z,1
2018-12-08T07:40:32.139Z,1
2018-12-08T07:43:32.039Z,1
2018-12-08T07:46:32.354Z,1
2018-12-08T07:49:32.022Z,1
2018-12-08T07:52:32.178Z,1.1
2018-12-08T07:55:32.520Z,1
2018-12-08T07:58:31.920Z,1.1
2018-12-08T08:01:32.322Z,1
2018-12-08T08:04:32.111Z,1
2018-12-08T08:07:32.110Z,1
2018-12-08T08:10:32.137Z,1
2018-12-08T08:13:32.083Z,0.9
2018-12-08T08:16:32.271Z,1
2018-12-08T08:19:32.287Z,1
2018-12-08T08:22:32.144Z,1
2018-12-08T08:25:33.276Z,1
2018-12-08T08:28:32.105Z,0.9
2018-12-08T08:31:33.017Z,1.2
2018-12-08T08:34:32.095Z,1.3
2018-12-08T08:37:32.014Z,1.3
2018-12-08T08:40:32.166Z,1.1
2018-12-08T08:43:31.964Z,1.1
2018-12-08T08:46:32.108Z,1
2018-12-08T08:49:32.159Z,1.2
2018-12-08T08:52:32.048Z,1.1
2018-12-08T08:55:32.320Z,1
2018-12-08T08:58:32.423Z,1.1
2018-12-08T09:01:31.978Z,1
2018-12-08T09:04:31.952Z,1.1
2018-12-08T09:07:32.170Z,1
2018-12-08T09:10:32.153Z,0.9
2018-12-08T09:13:32.017Z,0.9
2018-12-08T09:16:32.417Z,0.8
2018-12-08T09:19:31.907Z,0.8
2018-12-08T09:22:32.093Z,1
2018-12-08T09:25:32.037Z,1
2018-12-08T09:28:32.260Z,1
2018-12-08T09:31:32.156Z,1
2018-12-08T09:34:32.284Z,0.9
2018-12-08T09:37:31.959Z,1.1
2018-12-08T09:40:32.052Z,1.2
2018-12-08T09:43:31.977Z,1.2
2018-12-08T09:46:32.022Z,1.1
2018-12-08T09:49:32.095Z,1.2
2018-12-08T09:52:32.322Z,1.1
2018-12-08T09:55:31.985Z,1.2
2018-12-08T09:58:32.169Z,1.2
2018-12-08T10:01:32.289Z,1.1
2018-12-08T10:04:31.742Z,1.2
2018-12-08T10:07:33.127Z,1.2
2018-12-08T10:10:32.060Z,1.5
2018-12-08T10:13:32.486Z,1.3
2018-12-08T10:16:32.100Z,1.2
2018-12-08T10:19:32.141Z,1.2
2018-12-08T10:22:31.832Z,1
2018-12-08T10:25:32.158Z,1.2
2018-12-08T10:28:32.002Z,1.2
2018-12-08T10:31:31.859Z,1.4
2018-12-08T10:34:31.944Z,1.2
2018-12-08T10:37:31.961Z,1.3
2018-12-08T10:40:31.828Z,1.8
2018-12-08T10:43:32.320Z,1.9
2018-12-08T10:46:31.890Z,1.5
2018-12-08T10:49:32.078Z,1.4
2018-12-08T10:52:32.161Z,2.7
2018-12-08T10:55:32.274Z,3.2
2018-12-08T10:58:32.728Z,3.6
2018-12-08T11:01:32.471Z,4.1
2018-12-08T11:04:32.318Z,3.4
2018-12-08T11:07:32.360Z,3.2
2018-12-08T11:10:32.187Z,3.5
2018-12-08T11:13:32.343Z,3.8
2018-12-08T11:16:31.878Z,3.5
2018-12-08T11:19:32.288Z,3.5
2018-12-08T11:22:32.016Z,3.5
2018-12-08T11:25:32.749Z,3.1
2018-12-08T11:28:32.070Z,3.5
2018-12-08T11:31:31.895Z,3.1
2018-12-08T11:34:31.989Z,5.6
2018-12-08T11:37:32.431Z,4.5
2018-12-08T11:40:32.113Z,4
2018-12-08T11:43:31.909Z,4.3
2018-12-08T11:46:32.435Z,3.9
2018-12-08T11:49:32.101Z,3.2
2018-12-08T11:52:32.061Z,4.4
2018-12-08T11:55:31.843Z,4.8
2018-12-08T11:58:31.869Z,5.1
2018-12-08T12:01:31.826Z,4.2
2018-12-08T12:04:31.998Z,3.6
2018-12-08T12:07:31.895Z,3.9
2018-12-08T12:10:31.836Z,4
2018-12-08T12:13:32.044Z,3.3
2018-12-08T12:16:32.079Z,2.9
2018-12-08T12:19:32.125Z,2.8
2018-12-08T12:22:31.917Z,3.7
2018-12-08T12:25:32.071Z,3.2
2018-12-08T12:28:31.710Z,2.9
2018-12-08T12:31:32.351Z,3.9
2018-12-08T12:34:32.886Z,3.3
2018-12-08T12:37:32.003Z,2.9
2018-12-08T12:40:32.309Z,2.7
2018-12-08T12:43:32.077Z,2.6
2018-12-08T12:46:32.246Z,2.6
2018-12-08T12:49:31.968Z,2.3
2018-12-08T12:52:32.282Z,2.3
2018-12-08T12:55:32.737Z,2.9
2018-12-08T12:58:32.119Z,3.1
2018-12-08T13:01:32.138Z,2.6
2018-12-08T13:04:31.877Z,2.8
2018-12-08T13:07:31.902Z,3.1
2018-12-08T13:10:32.919Z,2.7
2018-12-08T13:13:32.690Z,4.8
2018-12-08T13:16:32.223Z,3.5
2018-12-08T13:19:32.409Z,3.3
2018-12-08T13:22:32.146Z,2.9
2018-12-08T13:25:31.938Z,2.8
2018-12-08T13:28:32.185Z,2.7
2018-12-08T13:31:31.879Z,2.7
2018-12-08T13:34:31.920Z,3.2
2018-12-08T13:37:31.941Z,3
2018-12-08T13:40:31.862Z,5.8
2018-12-08T13:43:31.841Z,5.1
2018-12-08T13:46:32.158Z,5.1
2018-12-08T13:49:31.776Z,5.6
2018-12-08T13:52:32.066Z,5.1
2018-12-08T13:55:31.813Z,4.9
2018-12-08T13:58:32.369Z,3.8
2018-12-08T14:01:31.979Z,7
2018-12-08T14:04:32.207Z,5.9
2018-12-08T14:07:31.874Z,4.9
2018-12-08T14:10:33.093Z,4.8
2018-12-08T14:13:31.963Z,3.6
2018-12-08T14:16:33.712Z,4.4
2018-12-08T14:19:31.940Z,4.8
2018-12-08T14:22:32.231Z,4.5
2018-12-08T14:25:31.766Z,5.1
2018-12-08T14:28:32.052Z,3.8
2018-12-08T14:31:31.909Z,3.2
2018-12-08T14:34:31.812Z,3.4
2018-12-08T14:37:31.957Z,3.7
2018-12-08T14:40:32.153Z,3
2018-12-08T14:43:32.193Z,2.8
2018-12-08T14:46:31.793Z,4.3
2018-12-08T14:49:31.821Z,4.1
2018-12-08T14:52:31.989Z,4.4
2018-12-08T14:55:32.115Z,4.3
2018-12-08T14:58:31.917Z,4.1
2018-12-08T15:01:31.876Z,3.1
2018-12-08T15:04:32.310Z,3
2018-12-08T15:07:31.845Z,2.6
2018-12-08T15:10:31.822Z,3
2018-12-08T15:13:31.882Z,3
2018-12-08T15:16:31.789Z,3.1
2018-12-08T15:19:31.833Z,3.5
2018-12-08T15:22:31.965Z,3.5
2018-12-08T15:25:32.837Z,2.8
2018-12-08T15:28:31.790Z,2.4
2018-12-08T15:31:31.887Z,3.2
2018-12-08T15:34:32.090Z,2.3
2018-12-08T15:37:32.031Z,2.1
2018-12-08T15:40:31.820Z,2
2018-12-08T15:43:32.199Z,1.9
2018-12-08T15:46:31.696Z,2.3
2018-12-08T15:49:32.213Z,2.1
2018-12-08T15:52:31.957Z,1.8
2018-12-08T15:55:31.884Z,2.2
2018-12-08T15:58:31.898Z,2.1
2018-12-08T16:01:32.102Z,1.9
2018-12-08T16:04:32.046Z,2.2
2018-12-08T16:07:32.045Z,1.9
2018-12-08T16:10:31.943Z,1.8
2018-12-08T16:13:31.924Z,1.5
2018-12-08T16:16:31.997Z,1.7
2018-12-08T16:19:31.963Z,1.7
2018-12-08T16:22:31.833Z,1.9
2018-12-08T16:25:31.964Z,2.1
2018-12-08T16:28:31.952Z,2.1
2018-12-08T16:31:31.858Z,2.9
2018-12-08T16:34:32.114Z,2.8
2018-12-08T16:37:32.188Z,2.4
2018-12-08T16:40:31.792Z,2
2018-12-08T16:43:31.914Z,2
2018-12-08T16:46:32.011Z,2
2018-12-08T16:49:31.998Z,1.9
2018-12-08T16:52:32.122Z,1.7
2018-12-08T16:55:31.907Z,5.2
2018-12-08T16:58:32.182Z,4
2018-12-08T17:01:31.871Z,4.3
2018-12-08T17:04:31.955Z,3.2
2018-12-08T17:07:32.199Z,4.1
2018-12-08T17:10:32.111Z,4.1
2018-12-08T17:13:31.768Z,3.5
2018-12-08T17:16:32.238Z,4.5
2018-12-08T17:19:31.913Z,5.4
2018-12-08T17:22:31.790Z,4.6
2018-12-08T17:25:32.317Z,4.1
2018-12-08T17:28:32.006Z,6.1
2018-12-08T17:31:32.055Z,4.8
2018-12-08T17:34:32.179Z,3.8
2018-12-08T17:37:31.864Z,3.2
2018-12-08T17:40:31.835Z,3.7
2018-12-08T17:43:31.894Z,4.1
2018-12-08T17:46:31.919Z,3.4
2018-12-08T17:49:32.080Z,3
2018-12-08T17:52:31.752Z,2.6
2018-12-08T17:55:31.879Z,2.6
2018-12-08T17:58:31.844Z,2.5
2018-12-08T18:01:32.119Z,2.6
2018-12-08T18:04:31.841Z,2.7
2018-12-08T18:07:31.953Z,2.5
2018-12-08T18:10:31.996Z,2.1
2018-12-08T18:13:32.642Z,3.2
2018-12-08T18:16:32.045Z,3.1
2018-12-08T18:19:31.857Z,2.8
2018-12-08T18:22:34.606Z,2.6
2018-12-08T18:25:31.815Z,2.5
2018-12-08T18:28:31.871Z,3.1
2018-12-08T18:31:32.014Z,3.1
2018-12-08T18:34:31.845Z,3.2
2018-12-08T18:37:32.123Z,2.7
2018-12-08T18:40:32.814Z,2.4
2018-12-08T18:43:32.323Z,2.6
2018-12-08T18:46:31.907Z,2.4
2018-12-08T18:49:32.015Z,2.3
2018-12-08T18:52:32.125Z,2.8
2018-12-08T18:55:32.071Z,2.4
2018-12-08T18:58:31.836Z,2.4
2018-12-08T19:01:32.017Z,2.3
2018-12-08T19:04:32.018Z,2
2018-12-08T19:07:32.047Z,2.3
2018-12-08T19:10:31.923Z,2.3
2018-12-08T19:13:31.939Z,2.2
2018-12-08T19:16:32.098Z,2
2018-12-08T19:19:32.120Z,2.3
2018-12-08T19:22:32.481Z,2
2018-12-08T19:25:31.792Z,2.1
2018-12-08T19:28:31.879Z,2
2018-12-08T19:31:32.294Z,1.9
2018-12-08T19:34:31.959Z,1.8
2018-12-08T19:37:32.041Z,1.7
2018-12-08T19:40:32.021Z,1.7
2018-12-08T19:43:32.224Z,1.8
2018-12-08T19:46:31.835Z,1.7
2018-12-08T19:49:31.775Z,1.5
2018-12-08T19:52:31.959Z,1.5
2018-12-08T19:55:31.978Z,1.7
2018-12-08T19:58:31.859Z,1.8
2018-12-08T20:01:31.826Z,1.7
2018-12-08T20:04:31.692Z,1.7
2018-12-08T20:07:31.776Z,1.5
2018-12-08T20:10:31.808Z,1.5
2018-12-08T20:13:31.921Z,1.4
2018-12-08T20:16:32.079Z,2
2018-12-08T20:19:31.848Z,1.8
2018-12-08T20:22:32.294Z,2.3
2018-12-08T20:25:32.127Z,2.4
2018-12-08T20:28:31.878Z,2.1
2018-12-08T20:31:32.213Z,2.3
2018-12-08T20:34:31.943Z,2.1
2018-12-08T20:37:31.781Z,1.8
2018-12-08T20:40:31.985Z,1.8
2018-12-08T20:43:32.017Z,1.6
2018-12-08T20:46:32.210Z,1.8
2018-12-08T20:49:31.869Z,2.6
2018-12-08T20:52:31.923Z,2.4
2018-12-08T20:55:31.659Z,2
2018-12-08T20:58:32.662Z,2.3
2018-12-08T21:01:31.994Z,1.9
2018-12-08T21:04:31.786Z,1.6
2018-12-08T21:07:32.073Z,1.8
2018-12-08T21:10:31.846Z,1.7
2018-12-08T21:13:32.040Z,2.6
2018-12-08T21:16:31.665Z,2.2
2018-12-08T21:19:31.762Z,1.7
2018-12-08T21:22:31.809Z,1.9
2018-12-08T21:25:32.601Z,2
2018-12-08T21:28:31.780Z,2.2
2018-12-08T21:31:31.825Z,2.3
2018-12-08T21:34:31.879Z,1.8
2018-12-08T21:37:32.158Z,1.5
2018-12-08T21:40:31.884Z,1.8
2018-12-08T21:43:31.671Z,1.6
2018-12-08T21:46:31.777Z,1.4
2018-12-08T21:49:31.824Z,1.4
2018-12-08T21:52:31.727Z,2.1
2018-12-08T21:55:31.974Z,1.7
2018-12-08T21:58:32.137Z,1.6
2018-12-08T22:01:32.080Z,1.5
2018-12-08T22:04:31.725Z,1.5
2018-12-08T22:07:32.118Z,1.4
2018-12-08T22:10:31.931Z,1.4
2018-12-08T22:13:32.031Z,1.6
2018-12-08T22:16:31.693Z,1.4
2018-12-08T22:19:32.025Z,1.5
2018-12-08T22:22:31.510Z,1.6
2018-12-08T22:25:31.722Z,1.4
2018-12-08T22:28:31.922Z,1.4
2018-12-08T22:31:32.074Z,1.3
2018-12-08T22:34:32.014Z,1.6
2018-12-08T22:37:31.788Z,1.5
2018-12-08T22:40:32.340Z,1.4
2018-12-08T22:43:31.832Z,1.7
2018-12-08T22:46:31.794Z,1.5
2018-12-08T22:49:32.159Z,1.3
2018-12-08T22:52:31.781Z,1.2
2018-12-08T22:55:31.615Z,1.3
2018-12-08T22:58:31.820Z,1.2
2018-12-08T23:01:32.185Z,1.2
2018-12-08T23:04:31.631Z,1.4
2018-12-08T23:07:31.834Z,1.3
2018-12-08T23:10:32.000Z,1.2
2018-12-08T23:13:31.585Z,1.2
2018-12-08T23:16:31.628Z,1.1
2018-12-08T23:19:31.822Z,1.3
2018-12-08T23:22:31.701Z,1.1
2018-12-08T23:25:32.041Z,1.3
2018-12-08T23:28:32.161Z,1.2
2018-12-08T23:31:31.581Z,1.2
2018-12-08T23:34:31.640Z,1.2
2018-12-08T23:37:32.134Z,1.2
2018-12-08T23:40:31.713Z,1.1
2018-12-08T23:43:32.113Z,1.1
2018-12-08T23:46:31.700Z,1.5
2018-12-08T23:49:31.816Z,1.3
2018-12-08T23:52:31.718Z,1.2
2018-12-08T23:55:31.642Z,1.4
2018-12-08T23:58:31.994Z,1.2
